Atasoylar — TCGK — position and weather

sailwx.info

Track history (hours):
 
Tides and Currents Weather Stations Pressure Air Temp Water Temp Dewpoint Dewpoint Depression Visibility Wind Speed Wind Dir Waves Ship Positions

Atasoylar

Last reported at 2018-Jul-18 11:34 UTC. Time now 2018-Jul-21 09:36 UTC.
Position N 43°10' E 028°01'.

Length 99 m; draft 6.4 m.

Type: Cargo ship. MMSI: 271000269.

Date/timePositionNaut miles runAvg speedWind from/ knotsBaromVisibWave heightAir tempDewpointWater temp
2018-Jul-18 11:34N 43°10' E 028°01'1 9.5
2018-Jul-18 11:30N 43°09' E 028°01'9 9.2
2018-Jul-18 10:30N 42°60' E 028°00'5 9.1
2018-Jul-18 10:00N 42°55' E 027°59'4 9.0
2018-Jul-18 09:30N 42°51' E 027°59'  
2018-Jul-15 17:07N 40°03' E 025°48'110.7
2018-Jul-15 17:00N 40°03' E 025°46'510.2
2018-Jul-15 16:30N 40°05' E 025°40'510.2
2018-Jul-15 16:00N 40°07' E 025°34'7 9.6
2018-Jul-15 15:15N 40°11' E 025°26'3 8.8
2018-Jul-15 14:54N 40°12' E 025°23'4 8.7
2018-Jul-15 14:25N 40°14' E 025°18'4 8.4
2018-Jul-15 14:00N 40°16' E 025°14'4 8.8
2018-Jul-15 13:30N 40°18' E 025°09'5 8.7
2018-Jul-15 12:59N 40°20' E 025°03'7 8.8
2018-Jul-15 12:09N 40°24' E 024°55'2 8.9
2018-Jul-15 11:57N 40°25' E 024°53'4 9.2
2018-Jul-15 11:30N 40°27' E 024°48'5 9.3
2018-Jul-15 11:00N 40°29' E 024°43'5 9.5
2018-Jul-15 10:30N 40°31' E 024°38'4 8.2
2018-Jul-15 10:00N 40°34' E 024°33'3 7.0
2018-Jul-15 09:30N 40°35' E 024°29'4 8.0
2018-Jul-15 09:00N 40°38' E 024°25'4 8.2
2018-Jul-15 08:30N 40°42' E 024°25'4 7.9
2018-Jul-15 08:00N 40°46' E 024°26'4 7.2
2018-Jul-15 07:30N 40°49' E 024°27'4 8.3
2018-Jul-15 07:00N 40°54' E 024°28'3 6.6
2018-Jul-15 06:31N 40°57' E 024°29'0 0.4
2018-Jul-15 05:59N 40°57' E 024°29'0 0.0
2018-Jul-15 05:29N 40°57' E 024°29'0 0.0
2018-Jul-15 04:59N 40°57' E 024°29'0 0.0
2018-Jul-15 04:29N 40°57' E 024°29'0 0.0
2018-Jul-15 03:59N 40°57' E 024°29'0 0.0
2018-Jul-15 03:29N 40°57' E 024°29'0 0.0
2018-Jul-15 02:59N 40°57' E 024°29'0 0.0
2018-Jul-15 02:29N 40°57' E 024°29'0 0.0
2018-Jul-15 01:59N 40°57' E 024°29'0 0.0
2018-Jul-15 01:29N 40°57' E 024°29'0 0.0
2018-Jul-15 00:59N 40°57' E 024°29'0 0.0
2018-Jul-15 00:29N 40°57' E 024°29'0 0.0
2018-Jul-14 23:59N 40°57' E 024°29'0 0.0
2018-Jul-14 23:29N 40°57' E 024°29'0 0.0
2018-Jul-14 22:59N 40°57' E 024°29'0 0.0
2018-Jul-14 22:29N 40°57' E 024°29'0 0.0
2018-Jul-14 21:59N 40°57' E 024°29'0 0.0
2018-Jul-14 21:29N 40°57' E 024°29'0 0.0
2018-Jul-14 20:59N 40°57' E 024°29'0 0.0
2018-Jul-14 20:29N 40°57' E 024°29'0 0.0
2018-Jul-14 19:59N 40°57' E 024°29'0 0.0
2018-Jul-14 19:29N 40°57' E 024°29'0 0.0
2018-Jul-14 18:59N 40°57' E 024°29'0 0.0
2018-Jul-14 18:29N 40°57' E 024°29'0 0.0
2018-Jul-14 17:59N 40°57' E 024°29'0 0.0
2018-Jul-14 17:29N 40°57' E 024°29'0 0.0
2018-Jul-14 16:59N 40°57' E 024°29'0 0.0
2018-Jul-14 16:29N 40°57' E 024°29'0 0.0
2018-Jul-14 15:59N 40°57' E 024°29'0 0.0
2018-Jul-14 15:29N 40°57' E 024°29'0 0.0
2018-Jul-14 14:59N 40°57' E 024°29'0 0.0
2018-Jul-14 13:59N 40°57' E 024°29'0 0.0
2018-Jul-14 13:29N 40°57' E 024°29'0 0.0
2018-Jul-14 12:59N 40°57' E 024°29'0 0.0
2018-Jul-14 12:29N 40°57' E 024°29'0 0.0
2018-Jul-14 11:59N 40°57' E 024°29'0 0.0
2018-Jul-14 11:29N 40°57' E 024°29'0 0.0
2018-Jul-14 10:59N 40°57' E 024°29'0 0.0
2018-Jul-14 10:29N 40°57' E 024°29'0 0.0
2018-Jul-14 09:59N 40°57' E 024°29'0 0.0
2018-Jul-14 09:26N 40°57' E 024°29'0 0.0
2018-Jul-14 08:59N 40°57' E 024°29'0 0.0
2018-Jul-14 08:29N 40°57' E 024°29'0 0.0
2018-Jul-14 07:59N 40°57' E 024°29'0 0.0
2018-Jul-14 07:29N 40°57' E 024°29'0 0.0
2018-Jul-14 06:59N 40°57' E 024°29'0 0.0
2018-Jul-14 06:29N 40°57' E 024°29'0 0.0
2018-Jul-14 05:59N 40°57' E 024°29'0 0.0
2018-Jul-14 05:29N 40°57' E 024°29'0 0.0
2018-Jul-14 04:59N 40°57' E 024°29'0 0.0
2018-Jul-14 04:29N 40°57' E 024°29'0 0.0
2018-Jul-14 03:59N 40°57' E 024°29'0 0.0
2018-Jul-14 03:29N 40°57' E 024°29'0 0.0
2018-Jul-14 02:59N 40°57' E 024°29'0 0.0
2018-Jul-14 02:29N 40°57' E 024°29'0 0.0
2018-Jul-14 01:59N 40°57' E 024°29'0 0.0
2018-Jul-14 01:29N 40°57' E 024°29'0 0.0
2018-Jul-14 00:59N 40°57' E 024°29'0 0.0
2018-Jul-14 00:29N 40°57' E 024°29'0 0.0
2018-Jul-13 23:59N 40°57' E 024°29'0 0.0
2018-Jul-13 23:29N 40°57' E 024°29'0 0.0
2018-Jul-13 22:59N 40°57' E 024°29'0 0.0
2018-Jul-13 22:29N 40°57' E 024°29'0 0.0
2018-Jul-13 21:59N 40°57' E 024°29'0 0.0
2018-Jul-13 21:29N 40°57' E 024°29'0 0.0
2018-Jul-13 20:59N 40°57' E 024°29'0 0.0
2018-Jul-13 20:29N 40°57' E 024°29'0 0.0
2018-Jul-13 19:59N 40°57' E 024°29'0 0.0
2018-Jul-13 19:29N 40°57' E 024°29'0 0.0
2018-Jul-13 18:59N 40°57' E 024°29'0 0.0
2018-Jul-13 18:29N 40°57' E 024°29'0 0.0
2018-Jul-13 17:59N 40°57' E 024°29'0 0.0
2018-Jul-13 17:29N 40°57' E 024°29'0 0.0
2018-Jul-13 16:59N 40°57' E 024°29'0 0.0
2018-Jul-13 16:29N 40°57' E 024°29'0 0.0
2018-Jul-13 15:59N 40°57' E 024°29'1 1.3
2018-Jul-13 15:30N 40°56' E 024°29'1 1.0
2018-Jul-13 15:00N 40°56' E 024°29'0 0.1
2018-Jul-13 14:30N 40°56' E 024°29'0 0.2
2018-Jul-13 13:30N 40°56' E 024°29'0 0.0
2018-Jul-13 13:00N 40°56' E 024°29'0 0.0
2018-Jul-13 12:30N 40°56' E 024°29'0 0.0
2018-Jul-13 12:00N 40°56' E 024°29'0 0.0
2018-Jul-13 11:30N 40°56' E 024°29'0 0.0
2018-Jul-13 10:54N 40°56' E 024°29'0 0.0
2018-Jul-13 10:30N 40°56' E 024°29'0 0.1
2018-Jul-13 10:00N 40°56' E 024°29'0 0.0
2018-Jul-13 09:30N 40°56' E 024°29'0 0.0
2018-Jul-13 09:00N 40°56' E 024°29'0 0.0
2018-Jul-13 08:30N 40°56' E 024°29'0 0.0
2018-Jul-13 08:00N 40°56' E 024°29'0 0.0
2018-Jul-13 07:30N 40°56' E 024°29'0 0.0
2018-Jul-13 07:00N 40°56' E 024°29'0 0.0
2018-Jul-13 06:30N 40°56' E 024°29'0 0.0
2018-Jul-13 06:00N 40°56' E 024°29'0 0.1
2018-Jul-13 05:30N 40°56' E 024°29'0 0.1
2018-Jul-13 05:00N 40°56' E 024°29'0 0.0
2018-Jul-13 04:30N 40°56' E 024°29'0 0.0
2018-Jul-13 04:00N 40°56' E 024°29'0 0.0
2018-Jul-13 03:30N 40°56' E 024°29'0 0.0
2018-Jul-13 03:00N 40°56' E 024°29'0 0.0
2018-Jul-13 02:30N 40°56' E 024°29'0 0.1
2018-Jul-13 02:00N 40°56' E 024°29'0 0.0
2018-Jul-13 01:30N 40°56' E 024°29'0 0.1
2018-Jul-13 01:00N 40°56' E 024°29'0 0.1
2018-Jul-13 00:30N 40°56' E 024°29'0 0.0
2018-Jul-13 00:00N 40°56' E 024°29'0 0.0
2018-Jul-12 23:30N 40°56' E 024°29'0 0.0
2018-Jul-12 23:00N 40°56' E 024°29'0 0.0
2018-Jul-12 22:30N 40°56' E 024°29'0 0.0
2018-Jul-12 22:00N 40°56' E 024°29'0 0.0
2018-Jul-12 21:30N 40°56' E 024°29'0 0.1
2018-Jul-12 21:00N 40°56' E 024°29'0 0.1
2018-Jul-12 20:30N 40°56' E 024°29'0 0.0
2018-Jul-12 20:00N 40°56' E 024°29'0 0.0
2018-Jul-12 19:30N 40°56' E 024°29'0 0.0
2018-Jul-12 19:00N 40°56' E 024°29'0 0.0
2018-Jul-12 18:30N 40°56' E 024°29'0 0.0
2018-Jul-12 18:00N 40°56' E 024°29'0 0.0
2018-Jul-12 17:30N 40°56' E 024°29'0 0.0
2018-Jul-12 17:00N 40°56' E 024°29'0 0.0
2018-Jul-12 16:30N 40°56' E 024°29'0 0.0
2018-Jul-12 16:00N 40°56' E 024°29'0 0.0
2018-Jul-12 15:30N 40°56' E 024°29'0 0.0
2018-Jul-12 15:00N 40°56' E 024°29'0 0.0
2018-Jul-12 14:30N 40°56' E 024°29'0 0.0
2018-Jul-12 14:00N 40°56' E 024°29'0 0.0
2018-Jul-12 13:30N 40°56' E 024°29'0 0.0
2018-Jul-12 13:00N 40°56' E 024°29'0 0.0
2018-Jul-12 12:30N 40°56' E 024°29'0 0.0
2018-Jul-12 12:00N 40°56' E 024°29'0 0.1
2018-Jul-12 11:27N 40°56' E 024°29'0 0.1
2018-Jul-12 11:00N 40°56' E 024°29'0 0.0
2018-Jul-12 10:30N 40°56' E 024°29'0 0.0
2018-Jul-12 10:00N 40°56' E 024°29'0 0.0
2018-Jul-12 09:27N 40°56' E 024°29'0 0.0
2018-Jul-12 09:00N 40°56' E 024°29'0 0.0
2018-Jul-12 08:30N 40°56' E 024°29'0 0.0
2018-Jul-12 08:00N 40°56' E 024°29'0 0.0
2018-Jul-12 07:30N 40°56' E 024°29'0 0.0
2018-Jul-12 07:00N 40°56' E 024°29'0 0.0
2018-Jul-12 06:30N 40°56' E 024°29'0 0.0
2018-Jul-12 06:00N 40°56' E 024°29'0 0.1
2018-Jul-12 05:30N 40°56' E 024°29'0 0.0
2018-Jul-12 05:00N 40°56' E 024°29'0 0.0
2018-Jul-12 04:30N 40°56' E 024°29'0 0.0
2018-Jul-12 04:00N 40°56' E 024°29'0 0.0
2018-Jul-12 03:30N 40°56' E 024°29'0 0.0
2018-Jul-12 02:57N 40°56' E 024°29'0 0.0
2018-Jul-12 02:30N 40°56' E 024°29'0 0.0
2018-Jul-12 02:00N 40°56' E 024°29'0 0.0
2018-Jul-12 01:30N 40°56' E 024°29'0 0.0
2018-Jul-12 01:00N 40°56' E 024°29'0 0.0
2018-Jul-12 00:30N 40°56' E 024°29'0 0.4
2018-Jul-12 00:00N 40°56' E 024°29'3 6.1
2018-Jul-11 23:30N 40°53' E 024°28'5 9.5
2018-Jul-11 23:00N 40°48' E 024°27'5 9.3
2018-Jul-11 22:30N 40°44' E 024°26'4 8.9
2018-Jul-11 22:01N 40°39' E 024°26'5 9.0
2018-Jul-11 21:30N 40°35' E 024°27'4 9.0
2018-Jul-11 21:00N 40°30' E 024°28'5 9.1
2018-Jul-11 20:30N 40°26' E 024°29'5 9.2
2018-Jul-11 20:00N 40°21' E 024°30'4 9.0
2018-Jul-11 19:31N 40°17' E 024°30'5 9.3
2018-Jul-11 19:00N 40°12' E 024°31'5 9.3
2018-Jul-11 18:30N 40°08' E 024°32'4 9.1
2018-Jul-11 18:01N 40°03' E 024°33'4 8.9
2018-Jul-11 17:30N 39°59' E 024°34'6 8.9
2018-Jul-11 16:53N 39°53' E 024°35'4 9.0
2018-Jul-11 16:29N 39°50' E 024°36'9 8.9
2018-Jul-11 15:30N 39°41' E 024°39'6 9.1
2018-Jul-11 14:53N 39°36' E 024°40'4 9.3
2018-Jul-11 14:30N 39°32' E 024°41'6 8.9
2018-Jul-11 13:46N 39°28' E 024°47'3 9.6
2018-Jul-11 13:30N 39°26' E 024°50'6 9.7
2018-Jul-11 12:52N 39°23' E 024°57'4 9.4
2018-Jul-11 12:24N 39°20' E 025°01'  
Track history (hours):
 
Tides and Currents Weather Stations Pressure Air Temp Water Temp Dewpoint Dewpoint Depression Visibility Wind Speed Wind Dir Waves Ship Positions

Atasoylar

Last reported at 2018-Jul-18 11:34 UTC. Time now 2018-Jul-21 09:36 UTC.
Position N 43°10' E 028°01'.

Length 99 m; draft 6.4 m.

Type: Cargo ship. MMSI: 271000269.

Date/timePositionNaut miles runAvg speedWind from/ knotsBaromVisibWave heightAir tempDewpointWater temp
2018-Jul-18 11:34N 43°10' E 028°01'1 9.5
2018-Jul-18 11:30N 43°09' E 028°01'9 9.2
2018-Jul-18 10:30N 42°60' E 028°00'5 9.1
2018-Jul-18 10:00N 42°55' E 027°59'4 9.0
2018-Jul-18 09:30N 42°51' E 027°59'  
2018-Jul-15 17:07N 40°03' E 025°48'110.7
2018-Jul-15 17:00N 40°03' E 025°46'510.2
2018-Jul-15 16:30N 40°05' E 025°40'510.2
2018-Jul-15 16:00N 40°07' E 025°34'7 9.6
2018-Jul-15 15:15N 40°11' E 025°26'3 8.8
2018-Jul-15 14:54N 40°12' E 025°23'4 8.7
2018-Jul-15 14:25N 40°14' E 025°18'4 8.4
2018-Jul-15 14:00N 40°16' E 025°14'4 8.8
2018-Jul-15 13:30N 40°18' E 025°09'5 8.7
2018-Jul-15 12:59N 40°20' E 025°03'7 8.8
2018-Jul-15 12:09N 40°24' E 024°55'2 8.9
2018-Jul-15 11:57N 40°25' E 024°53'4 9.2
2018-Jul-15 11:30N 40°27' E 024°48'5 9.3
2018-Jul-15 11:00N 40°29' E 024°43'5 9.5
2018-Jul-15 10:30N 40°31' E 024°38'4 8.2
2018-Jul-15 10:00N 40°34' E 024°33'3 7.0
2018-Jul-15 09:30N 40°35' E 024°29'4 8.0
2018-Jul-15 09:00N 40°38' E 024°25'4 8.2
2018-Jul-15 08:30N 40°42' E 024°25'4 7.9
2018-Jul-15 08:00N 40°46' E 024°26'4 7.2
2018-Jul-15 07:30N 40°49' E 024°27'4 8.3
2018-Jul-15 07:00N 40°54' E 024°28'3 6.6
2018-Jul-15 06:31N 40°57' E 024°29'0 0.4
2018-Jul-15 05:59N 40°57' E 024°29'0 0.0
2018-Jul-15 05:29N 40°57' E 024°29'0 0.0
2018-Jul-15 04:59N 40°57' E 024°29'0 0.0
2018-Jul-15 04:29N 40°57' E 024°29'0 0.0
2018-Jul-15 03:59N 40°57' E 024°29'0 0.0
2018-Jul-15 03:29N 40°57' E 024°29'0 0.0
2018-Jul-15 02:59N 40°57' E 024°29'0 0.0
2018-Jul-15 02:29N 40°57' E 024°29'0 0.0
2018-Jul-15 01:59N 40°57' E 024°29'0 0.0
2018-Jul-15 01:29N 40°57' E 024°29'0 0.0
2018-Jul-15 00:59N 40°57' E 024°29'0 0.0
2018-Jul-15 00:29N 40°57' E 024°29'0 0.0
2018-Jul-14 23:59N 40°57' E 024°29'0 0.0
2018-Jul-14 23:29N 40°57' E 024°29'0 0.0
2018-Jul-14 22:59N 40°57' E 024°29'0 0.0
2018-Jul-14 22:29N 40°57' E 024°29'0 0.0
2018-Jul-14 21:59N 40°57' E 024°29'0 0.0
2018-Jul-14 21:29N 40°57' E 024°29'0 0.0
2018-Jul-14 20:59N 40°57' E 024°29'0 0.0
2018-Jul-14 20:29N 40°57' E 024°29'0 0.0
2018-Jul-14 19:59N 40°57' E 024°29'0 0.0
2018-Jul-14 19:29N 40°57' E 024°29'0 0.0
2018-Jul-14 18:59N 40°57' E 024°29'0 0.0
2018-Jul-14 18:29N 40°57' E 024°29'0 0.0
2018-Jul-14 17:59N 40°57' E 024°29'0 0.0
2018-Jul-14 17:29N 40°57' E 024°29'0 0.0
2018-Jul-14 16:59N 40°57' E 024°29'0 0.0
2018-Jul-14 16:29N 40°57' E 024°29'0 0.0
2018-Jul-14 15:59N 40°57' E 024°29'0 0.0
2018-Jul-14 15:29N 40°57' E 024°29'0 0.0
2018-Jul-14 14:59N 40°57' E 024°29'0 0.0
2018-Jul-14 13:59N 40°57' E 024°29'0 0.0
2018-Jul-14 13:29N 40°57' E 024°29'0 0.0
2018-Jul-14 12:59N 40°57' E 024°29'0 0.0
2018-Jul-14 12:29N 40°57' E 024°29'0 0.0
2018-Jul-14 11:59N 40°57' E 024°29'0 0.0
2018-Jul-14 11:29N 40°57' E 024°29'0 0.0
2018-Jul-14 10:59N 40°57' E 024°29'0 0.0
2018-Jul-14 10:29N 40°57' E 024°29'0 0.0
2018-Jul-14 09:59N 40°57' E 024°29'0 0.0
2018-Jul-14 09:26N 40°57' E 024°29'0 0.0
2018-Jul-14 08:59N 40°57' E 024°29'0 0.0
2018-Jul-14 08:29N 40°57' E 024°29'0 0.0
2018-Jul-14 07:59N 40°57' E 024°29'0 0.0
2018-Jul-14 07:29N 40°57' E 024°29'0 0.0
2018-Jul-14 06:59N 40°57' E 024°29'0 0.0
2018-Jul-14 06:29N 40°57' E 024°29'0 0.0
2018-Jul-14 05:59N 40°57' E 024°29'0 0.0
2018-Jul-14 05:29N 40°57' E 024°29'0 0.0
2018-Jul-14 04:59N 40°57' E 024°29'0 0.0
2018-Jul-14 04:29N 40°57' E 024°29'0 0.0
2018-Jul-14 03:59N 40°57' E 024°29'0 0.0
2018-Jul-14 03:29N 40°57' E 024°29'0 0.0
2018-Jul-14 02:59N 40°57' E 024°29'0 0.0
2018-Jul-14 02:29N 40°57' E 024°29'0 0.0
2018-Jul-14 01:59N 40°57' E 024°29'0 0.0
2018-Jul-14 01:29N 40°57' E 024°29'0 0.0
2018-Jul-14 00:59N 40°57' E 024°29'0 0.0
2018-Jul-14 00:29N 40°57' E 024°29'0 0.0
2018-Jul-13 23:59N 40°57' E 024°29'0 0.0
2018-Jul-13 23:29N 40°57' E 024°29'0 0.0
2018-Jul-13 22:59N 40°57' E 024°29'0 0.0
2018-Jul-13 22:29N 40°57' E 024°29'0 0.0
2018-Jul-13 21:59N 40°57' E 024°29'0 0.0
2018-Jul-13 21:29N 40°57' E 024°29'0 0.0
2018-Jul-13 20:59N 40°57' E 024°29'0 0.0
2018-Jul-13 20:29N 40°57' E 024°29'0 0.0
2018-Jul-13 19:59N 40°57' E 024°29'0 0.0
2018-Jul-13 19:29N 40°57' E 024°29'0 0.0
2018-Jul-13 18:59N 40°57' E 024°29'0 0.0
2018-Jul-13 18:29N 40°57' E 024°29'0 0.0
2018-Jul-13 17:59N 40°57' E 024°29'0 0.0
2018-Jul-13 17:29N 40°57' E 024°29'0 0.0
2018-Jul-13 16:59N 40°57' E 024°29'0 0.0
2018-Jul-13 16:29N 40°57' E 024°29'0 0.0
2018-Jul-13 15:59N 40°57' E 024°29'1 1.3
2018-Jul-13 15:30N 40°56' E 024°29'1 1.0
2018-Jul-13 15:00N 40°56' E 024°29'0 0.1
2018-Jul-13 14:30N 40°56' E 024°29'0 0.2
2018-Jul-13 13:30N 40°56' E 024°29'0 0.0
2018-Jul-13 13:00N 40°56' E 024°29'0 0.0
2018-Jul-13 12:30N 40°56' E 024°29'0 0.0
2018-Jul-13 12:00N 40°56' E 024°29'0 0.0
2018-Jul-13 11:30N 40°56' E 024°29'0 0.0
2018-Jul-13 10:54N 40°56' E 024°29'0 0.0
2018-Jul-13 10:30N 40°56' E 024°29'0 0.1
2018-Jul-13 10:00N 40°56' E 024°29'0 0.0
2018-Jul-13 09:30N 40°56' E 024°29'0 0.0
2018-Jul-13 09:00N 40°56' E 024°29'0 0.0
2018-Jul-13 08:30N 40°56' E 024°29'0 0.0
2018-Jul-13 08:00N 40°56' E 024°29'0 0.0
2018-Jul-13 07:30N 40°56' E 024°29'0 0.0
2018-Jul-13 07:00N 40°56' E 024°29'0 0.0
2018-Jul-13 06:30N 40°56' E 024°29'0 0.0
2018-Jul-13 06:00N 40°56' E 024°29'0 0.1
2018-Jul-13 05:30N 40°56' E 024°29'0 0.1
2018-Jul-13 05:00N 40°56' E 024°29'0 0.0
2018-Jul-13 04:30N 40°56' E 024°29'0 0.0
2018-Jul-13 04:00N 40°56' E 024°29'0 0.0
2018-Jul-13 03:30N 40°56' E 024°29'0 0.0
2018-Jul-13 03:00N 40°56' E 024°29'0 0.0
2018-Jul-13 02:30N 40°56' E 024°29'0 0.1
2018-Jul-13 02:00N 40°56' E 024°29'0 0.0
2018-Jul-13 01:30N 40°56' E 024°29'0 0.1
2018-Jul-13 01:00N 40°56' E 024°29'0 0.1
2018-Jul-13 00:30N 40°56' E 024°29'0 0.0
2018-Jul-13 00:00N 40°56' E 024°29'0 0.0
2018-Jul-12 23:30N 40°56' E 024°29'0 0.0
2018-Jul-12 23:00N 40°56' E 024°29'0 0.0
2018-Jul-12 22:30N 40°56' E 024°29'0 0.0
2018-Jul-12 22:00N 40°56' E 024°29'0 0.0
2018-Jul-12 21:30N 40°56' E 024°29'0 0.1
2018-Jul-12 21:00N 40°56' E 024°29'0 0.1
2018-Jul-12 20:30N 40°56' E 024°29'0 0.0
2018-Jul-12 20:00N 40°56' E 024°29'0 0.0
2018-Jul-12 19:30N 40°56' E 024°29'0 0.0
2018-Jul-12 19:00N 40°56' E 024°29'0 0.0
2018-Jul-12 18:30N 40°56' E 024°29'0 0.0
2018-Jul-12 18:00N 40°56' E 024°29'0 0.0
2018-Jul-12 17:30N 40°56' E 024°29'0 0.0
2018-Jul-12 17:00N 40°56' E 024°29'0 0.0
2018-Jul-12 16:30N 40°56' E 024°29'0 0.0
2018-Jul-12 16:00N 40°56' E 024°29'0 0.0
2018-Jul-12 15:30N 40°56' E 024°29'0 0.0
2018-Jul-12 15:00N 40°56' E 024°29'0 0.0
2018-Jul-12 14:30N 40°56' E 024°29'0 0.0
2018-Jul-12 14:00N 40°56' E 024°29'0 0.0
2018-Jul-12 13:30N 40°56' E 024°29'0 0.0
2018-Jul-12 13:00N 40°56' E 024°29'0 0.0
2018-Jul-12 12:30N 40°56' E 024°29'0 0.0
2018-Jul-12 12:00N 40°56' E 024°29'0 0.1
2018-Jul-12 11:27N 40°56' E 024°29'0 0.1
2018-Jul-12 11:00N 40°56' E 024°29'0 0.0
2018-Jul-12 10:30N 40°56' E 024°29'0 0.0
2018-Jul-12 10:00N 40°56' E 024°29'0 0.0
2018-Jul-12 09:27N 40°56' E 024°29'0 0.0
2018-Jul-12 09:00N 40°56' E 024°29'0 0.0
2018-Jul-12 08:30N 40°56' E 024°29'0 0.0
2018-Jul-12 08:00N 40°56' E 024°29'0 0.0
2018-Jul-12 07:30N 40°56' E 024°29'0 0.0
2018-Jul-12 07:00N 40°56' E 024°29'0 0.0
2018-Jul-12 06:30N 40°56' E 024°29'0 0.0
2018-Jul-12 06:00N 40°56' E 024°29'0 0.1
2018-Jul-12 05:30N 40°56' E 024°29'0 0.0
2018-Jul-12 05:00N 40°56' E 024°29'0 0.0
2018-Jul-12 04:30N 40°56' E 024°29'0 0.0
2018-Jul-12 04:00N 40°56' E 024°29'0 0.0
2018-Jul-12 03:30N 40°56' E 024°29'0 0.0
2018-Jul-12 02:57N 40°56' E 024°29'0 0.0
2018-Jul-12 02:30N 40°56' E 024°29'0 0.0
2018-Jul-12 02:00N 40°56' E 024°29'0 0.0
2018-Jul-12 01:30N 40°56' E 024°29'0 0.0
2018-Jul-12 01:00N 40°56' E 024°29'0 0.0
2018-Jul-12 00:30N 40°56' E 024°29'0 0.4
2018-Jul-12 00:00N 40°56' E 024°29'3 6.1
2018-Jul-11 23:30N 40°53' E 024°28'5 9.5
2018-Jul-11 23:00N 40°48' E 024°27'5 9.3
2018-Jul-11 22:30N 40°44' E 024°26'4 8.9
2018-Jul-11 22:01N 40°39' E 024°26'5 9.0
2018-Jul-11 21:30N 40°35' E 024°27'4 9.0
2018-Jul-11 21:00N 40°30' E 024°28'5 9.1
2018-Jul-11 20:30N 40°26' E 024°29'5 9.2
2018-Jul-11 20:00N 40°21' E 024°30'4 9.0
2018-Jul-11 19:31N 40°17' E 024°30'5 9.3
2018-Jul-11 19:00N 40°12' E 024°31'5 9.3
2018-Jul-11 18:30N 40°08' E 024°32'4 9.1
2018-Jul-11 18:01N 40°03' E 024°33'4 8.9
2018-Jul-11 17:30N 39°59' E 024°34'6 8.9
2018-Jul-11 16:53N 39°53' E 024°35'4 9.0
2018-Jul-11 16:29N 39°50' E 024°36'9 8.9
2018-Jul-11 15:30N 39°41' E 024°39'6 9.1
2018-Jul-11 14:53N 39°36' E 024°40'4 9.3
2018-Jul-11 14:30N 39°32' E 024°41'6 8.9
2018-Jul-11 13:46N 39°28' E 024°47'3 9.6
2018-Jul-11 13:30N 39°26' E 024°50'6 9.7
2018-Jul-11 12:52N 39°23' E 024°57'4 9.4
2018-Jul-11 12:24N 39°20' E 025°01'  

Dump ship's entire track history